createdAt,value
2018-08-09T00:00:33.882Z,1.20
2018-08-09T00:03:01.481Z,1.65
2018-08-09T00:05:29.091Z,2.08
2018-08-09T00:07:56.701Z,1.22
2018-08-09T00:10:24.337Z,1.27
2018-08-09T00:12:51.933Z,1.20
2018-08-09T00:15:19.542Z,1.52
2018-08-09T00:17:47.109Z,1.20
2018-08-09T00:20:14.753Z,1.35
2018-08-09T00:22:42.540Z,1.25
2018-08-09T00:25:10.164Z,0.90
2018-08-09T00:27:37.828Z,1.35
2018-08-09T00:30:06.070Z,1.42
2018-08-09T00:32:33.694Z,1.12
2018-08-09T00:35:01.331Z,1.35
2018-08-09T00:37:28.971Z,1.82
2018-08-09T00:39:56.561Z,1.02
2018-08-09T00:42:24.201Z,1.50
2018-08-09T00:44:51.838Z,1.60
2018-08-09T00:47:19.447Z,1.42
2018-08-09T00:49:47.074Z,1.10
2018-08-09T00:52:14.677Z,1.27
2018-08-09T00:54:42.306Z,1.15
2018-08-09T00:57:09.929Z,1.27
2018-08-09T00:59:37.587Z,1.87
2018-08-09T01:02:05.478Z,1.27
2018-08-09T01:04:33.110Z,1.60
2018-08-09T01:07:00.758Z,2.55
2018-08-09T01:09:28.334Z,1.20
2018-08-09T01:11:56.029Z,1.20
2018-08-09T01:14:23.633Z,1.20
2018-08-09T01:16:51.289Z,1.95
2018-08-09T01:19:18.877Z,1.27
2018-08-09T01:21:46.543Z,1.85
2018-08-09T01:24:14.174Z,1.37
2018-08-09T01:26:41.878Z,1.67
2018-08-09T01:29:09.565Z,1.20
2018-08-09T01:31:38.084Z,1.62
2018-08-09T01:34:07.445Z,1.12
2018-08-09T01:36:35.809Z,1.10
2018-08-09T01:39:06.630Z,1.10
2018-08-09T01:41:34.257Z,1.52
2018-08-09T01:44:03.006Z,1.35
2018-08-09T01:46:30.800Z,2.02
2018-08-09T01:48:58.878Z,1.30
2018-08-09T01:51:27.129Z,1.20
2018-08-09T01:53:54.781Z,1.05
2018-08-09T01:56:22.446Z,1.32
2018-08-09T01:58:50.672Z,1.27
2018-08-09T02:01:18.753Z,1.57
2018-08-09T02:03:46.395Z,1.20
2018-08-09T02:06:15.105Z,2.47
2018-08-09T02:08:42.850Z,1.30
2018-08-09T02:11:11.335Z,1.12
2018-08-09T02:13:39.100Z,1.10
2018-08-09T02:16:06.879Z,1.27
2018-08-09T02:18:34.742Z,1.82
2018-08-09T02:21:02.341Z,1.30
2018-08-09T02:23:29.955Z,1.50
2018-08-09T02:25:57.557Z,1.17
2018-08-09T02:28:25.181Z,0.93
2018-08-09T02:30:52.822Z,1.00
2018-08-09T02:33:20.421Z,1.55
2018-08-09T02:35:48.027Z,1.00
2018-08-09T02:38:15.664Z,1.10
2018-08-09T02:40:43.278Z,1.15
2018-08-09T02:43:10.942Z,1.15
2018-08-09T02:45:38.559Z,1.07
2018-08-09T02:48:06.398Z,1.20
2018-08-09T02:50:34.006Z,1.20
2018-08-09T02:53:01.582Z,1.42
2018-08-09T02:55:29.166Z,1.10
2018-08-09T02:57:56.769Z,0.82
2018-08-09T03:00:24.431Z,1.62
2018-08-09T03:02:52.037Z,1.12
2018-08-09T03:05:19.678Z,1.12
2018-08-09T03:07:47.291Z,1.20
2018-08-09T03:10:14.927Z,1.07
2018-08-09T03:12:42.599Z,1.20
2018-08-09T03:15:10.262Z,1.00
2018-08-09T03:17:37.901Z,1.87
2018-08-09T03:20:05.530Z,0.98
2018-08-09T03:22:33.153Z,2.05
2018-08-09T03:25:00.836Z,1.30
2018-08-09T03:27:28.439Z,1.07
2018-08-09T03:29:56.077Z,1.07
2018-08-09T03:32:23.681Z,1.50
2018-08-09T03:34:51.310Z,1.45
2018-08-09T03:37:18.972Z,0.75
2018-08-09T03:39:46.575Z,1.15
2018-08-09T03:42:14.193Z,1.00
2018-08-09T03:44:41.826Z,1.32
2018-08-09T03:47:09.451Z,1.15
2018-08-09T03:49:37.094Z,1.20
2018-08-09T03:52:05.087Z,1.10
2018-08-09T03:54:32.780Z,1.22
2018-08-09T03:57:00.399Z,1.37
2018-08-09T03:59:28.083Z,1.32
2018-08-09T04:01:55.726Z,1.20
2018-08-09T04:04:23.698Z,1.15
2018-08-09T04:06:51.469Z,2.00
2018-08-09T04:09:19.146Z,2.02
2018-08-09T04:11:46.753Z,1.42
2018-08-09T04:14:14.386Z,1.30
2018-08-09T04:16:42.725Z,1.30
2018-08-09T04:19:10.370Z,1.30
2018-08-09T04:21:38.158Z,1.30
2018-08-09T04:24:06.089Z,1.27
2018-08-09T04:26:33.731Z,1.57
2018-08-09T04:29:01.396Z,1.05
2018-08-09T04:31:28.951Z,1.02
2018-08-09T04:33:56.596Z,0.98
2018-08-09T04:36:24.258Z,1.30
2018-08-09T04:38:51.882Z,1.30
2018-08-09T04:43:48.672Z,1.10
2018-08-09T04:46:16.281Z,1.20
2018-08-09T04:48:43.862Z,1.20
2018-08-09T04:51:11.495Z,1.40
2018-08-09T04:53:39.136Z,2.45
2018-08-09T04:56:06.800Z,1.15
2018-08-09T04:58:34.430Z,1.30
2018-08-09T05:01:02.034Z,1.27
2018-08-09T05:03:29.919Z,1.25
2018-08-09T05:05:57.527Z,1.20
2018-08-09T05:08:25.163Z,1.20
2018-08-09T05:10:52.871Z,2.08
2018-08-09T05:13:20.455Z,1.30
2018-08-09T05:15:48.134Z,2.10
2018-08-09T05:18:15.772Z,1.57
2018-08-09T05:20:43.389Z,1.62
2018-08-09T05:23:11.090Z,1.20
2018-08-09T05:25:38.679Z,1.40
2018-08-09T05:28:06.874Z,1.32
2018-08-09T05:30:34.505Z,1.52
2018-08-09T05:33:02.109Z,1.35
2018-08-09T05:35:29.714Z,2.17
2018-08-09T05:37:57.302Z,2.05
2018-08-09T05:40:24.997Z,1.90
2018-08-09T05:42:52.743Z,1.77
2018-08-09T05:45:20.415Z,1.57
2018-08-09T05:47:48.006Z,1.27
2018-08-09T05:50:15.625Z,1.17
2018-08-09T05:52:43.342Z,1.30
2018-08-09T05:55:10.937Z,1.67
2018-08-09T05:57:38.570Z,1.30
2018-08-09T06:00:07.077Z,1.32
2018-08-09T06:02:34.647Z,2.85
2018-08-09T06:05:02.268Z,1.65
2018-08-09T06:07:29.858Z,2.25
2018-08-09T06:09:57.596Z,1.10
2018-08-09T06:12:25.209Z,1.30
2018-08-09T06:14:52.847Z,1.60
2018-08-09T06:17:20.538Z,1.30
2018-08-09T06:19:48.166Z,1.70
2018-08-09T06:22:15.783Z,1.00
2018-08-09T06:24:43.454Z,1.40
2018-08-09T06:27:11.103Z,1.32
2018-08-09T06:29:38.745Z,1.40
2018-08-09T06:32:06.359Z,1.65
2018-08-09T06:34:34.018Z,1.22
2018-08-09T06:37:01.617Z,1.35
2018-08-09T06:39:29.232Z,1.50
2018-08-09T06:41:56.848Z,1.17
2018-08-09T06:44:24.482Z,1.40
2018-08-09T06:46:52.087Z,1.85
2018-08-09T06:49:19.802Z,1.30
2018-08-09T06:51:47.380Z,1.30
2018-08-09T06:54:15.008Z,1.72
2018-08-09T06:56:42.643Z,1.50
2018-08-09T06:59:10.246Z,1.42
2018-08-09T07:01:37.877Z,1.55
2018-08-09T07:04:05.757Z,1.47
2018-08-09T07:06:33.342Z,2.10
2018-08-09T07:09:01.491Z,1.67
2018-08-09T07:11:29.089Z,1.50
2018-08-09T07:13:56.738Z,1.35
2018-08-09T07:16:24.347Z,1.30
2018-08-09T07:18:51.978Z,1.50
2018-08-09T07:21:19.566Z,1.35
2018-08-09T07:23:47.250Z,1.80
2018-08-09T07:26:14.859Z,1.25
2018-08-09T07:28:42.451Z,1.30
2018-08-09T07:31:10.032Z,1.02
2018-08-09T07:33:37.627Z,1.42
2018-08-09T07:36:05.539Z,1.30
2018-08-09T07:38:33.268Z,1.50
2018-08-09T07:41:00.863Z,1.05
2018-08-09T07:43:28.506Z,1.30
2018-08-09T07:45:56.105Z,1.55
2018-08-09T07:48:23.765Z,1.40
2018-08-09T07:50:51.307Z,1.60
2018-08-09T07:53:18.954Z,1.77
2018-08-09T07:55:46.857Z,5.95
2018-08-09T07:58:14.431Z,1.70
2018-08-09T08:00:42.143Z,2.00
2018-08-09T08:03:09.766Z,4.15
2018-08-09T08:05:37.386Z,2.10
2018-08-09T08:08:05.046Z,2.83
2018-08-09T08:10:32.654Z,1.95
2018-08-09T08:13:00.259Z,2.17
2018-08-09T08:15:27.865Z,2.35
2018-08-09T08:17:55.559Z,2.08
2018-08-09T08:20:23.169Z,3.80
2018-08-09T08:22:50.756Z,2.62
2018-08-09T08:25:18.354Z,2.10
2018-08-09T08:27:45.950Z,4.08
2018-08-09T08:30:13.761Z,4.70
2018-08-09T08:32:42.449Z,3.33
2018-08-09T08:35:10.555Z,3.15
2018-08-09T08:37:38.674Z,2.05
2018-08-09T08:40:06.674Z,2.65
2018-08-09T08:42:34.608Z,3.92
2018-08-09T08:45:02.334Z,2.17
2018-08-09T08:47:29.965Z,2.33
2018-08-09T08:49:57.549Z,1.82
2018-08-09T08:52:25.184Z,2.42
2018-08-09T08:54:52.829Z,2.27
2018-08-09T08:57:20.541Z,2.25
2018-08-09T08:59:48.151Z,1.95
2018-08-09T09:02:15.929Z,3.70
2018-08-09T09:04:44.302Z,2.17
2018-08-09T09:07:11.969Z,2.52
2018-08-09T09:09:40.840Z,2.10
2018-08-09T09:12:08.601Z,2.72
2018-08-09T09:14:36.504Z,2.22
2018-08-09T09:17:04.308Z,2.67
2018-08-09T09:19:32.732Z,3.85
2018-08-09T09:22:00.710Z,2.60
2018-08-09T09:24:29.400Z,3.65
2018-08-09T09:26:57.502Z,1.95
2018-08-09T09:29:25.274Z,2.30
2018-08-09T09:31:52.919Z,4.47
2018-08-09T09:34:20.658Z,2.67
2018-08-09T09:36:48.418Z,4.05
2018-08-09T09:39:17.790Z,2.40
2018-08-09T09:41:46.201Z,2.12
2018-08-09T09:44:13.977Z,4.12
2018-08-09T09:46:41.714Z,2.52
2018-08-09T09:49:09.417Z,3.35
2018-08-09T09:51:37.062Z,2.10
2018-08-09T09:54:04.991Z,4.80
2018-08-09T09:56:33.423Z,4.40
2018-08-09T09:59:01.042Z,3.37
2018-08-09T10:01:32.856Z,2.77
2018-08-09T10:04:00.778Z,3.15
2018-08-09T10:06:28.498Z,2.70
2018-08-09T10:08:56.174Z,4.95
2018-08-09T10:11:24.230Z,2.98
2018-08-09T10:13:52.809Z,2.47
2018-08-09T10:16:20.566Z,3.50
2018-08-09T10:18:48.473Z,2.12
2018-08-09T10:21:16.171Z,2.58
2018-08-09T10:23:43.861Z,3.77
2018-08-09T10:26:11.470Z,3.60
2018-08-09T10:28:39.134Z,3.05
2018-08-09T10:31:06.766Z,4.12
2018-08-09T10:33:34.428Z,2.70
2018-08-09T10:36:02.046Z,2.00
2018-08-09T10:38:30.523Z,2.62
2018-08-09T10:40:58.866Z,2.25
2018-08-09T10:43:26.644Z,3.05
2018-08-09T10:45:54.387Z,1.90
2018-08-09T10:48:22.046Z,3.37
2018-08-09T10:50:49.676Z,1.92
2018-08-09T10:53:17.325Z,2.22
2018-08-09T10:55:45.036Z,2.17
2018-08-09T10:58:12.686Z,1.50
2018-08-09T11:00:40.375Z,3.10
2018-08-09T11:03:08.226Z,1.80
2018-08-09T11:05:36.127Z,2.30
2018-08-09T11:08:04.870Z,2.52
2018-08-09T11:10:32.817Z,3.35
2018-08-09T11:13:01.592Z,2.75
2018-08-09T11:15:29.333Z,1.90
2018-08-09T11:17:57.024Z,2.55
2018-08-09T11:20:24.637Z,3.35
2018-08-09T11:22:52.262Z,3.40
2018-08-09T11:25:20.559Z,4.08
2018-08-09T11:27:48.266Z,3.02
2018-08-09T11:30:15.865Z,2.20
2018-08-09T11:32:43.494Z,4.37
2018-08-09T11:35:11.065Z,3.02
2018-08-09T11:37:38.709Z,1.92
2018-08-09T11:40:06.389Z,2.22
2018-08-09T11:42:34.011Z,3.20
2018-08-09T11:45:01.633Z,2.98
2018-08-09T11:47:29.261Z,3.12
2018-08-09T11:49:56.938Z,2.20
2018-08-09T11:52:25.578Z,1.85
2018-08-09T11:54:53.231Z,3.35
2018-08-09T11:57:20.892Z,4.15
2018-08-09T11:59:48.453Z,3.08
2018-08-09T12:02:16.102Z,3.08
2018-08-09T12:04:43.730Z,2.83
2018-08-09T12:07:11.376Z,2.67
2018-08-09T12:09:39.012Z,2.58
2018-08-09T12:12:06.685Z,3.10
2018-08-09T12:14:34.335Z,4.22
2018-08-09T12:17:02.031Z,3.47
2018-08-09T12:19:29.769Z,4.58
2018-08-09T12:21:57.477Z,3.98
2018-08-09T12:24:25.242Z,2.60
2018-08-09T12:26:52.925Z,2.70
2018-08-09T12:29:20.596Z,3.55
2018-08-09T12:31:48.202Z,3.67
2018-08-09T12:34:15.862Z,2.60
2018-08-09T12:36:43.675Z,3.22
2018-08-09T12:39:12.338Z,3.33
2018-08-09T12:41:40.208Z,2.92
2018-08-09T12:44:09.413Z,3.92
2018-08-09T12:46:37.026Z,4.03
2018-08-09T12:49:04.645Z,3.42
2018-08-09T12:51:32.247Z,3.87
2018-08-09T12:53:59.893Z,2.40
2018-08-09T12:56:27.493Z,4.17
2018-08-09T12:58:55.153Z,2.20
2018-08-09T13:01:22.802Z,3.60
2018-08-09T13:03:50.439Z,3.90
2018-08-09T13:06:18.083Z,3.35
2018-08-09T13:08:45.713Z,2.52
2018-08-09T13:11:17.939Z,3.02
2018-08-09T13:13:45.742Z,2.35
2018-08-09T13:16:13.365Z,2.95
2018-08-09T13:18:41.010Z,3.25
2018-08-09T13:21:08.637Z,3.30
2018-08-09T13:23:36.324Z,2.47
2018-08-09T13:26:04.032Z,4.78
2018-08-09T13:28:31.687Z,2.67
2018-08-09T13:30:59.338Z,2.27
2018-08-09T13:33:26.943Z,3.15
2018-08-09T13:35:54.552Z,3.37
2018-08-09T13:38:23.451Z,4.15
2018-08-09T13:40:51.141Z,2.60
2018-08-09T13:43:18.816Z,4.03
2018-08-09T13:45:46.417Z,2.47
2018-08-09T13:48:14.050Z,2.42
2018-08-09T13:50:41.658Z,2.17
2018-08-09T13:53:09.289Z,2.58
2018-08-09T13:55:36.918Z,3.90
2018-08-09T13:58:04.643Z,2.40
2018-08-09T14:00:32.287Z,1.77
2018-08-09T14:02:59.930Z,2.30
2018-08-09T14:05:28.398Z,2.30
2018-08-09T14:07:56.062Z,1.45
2018-08-09T14:10:23.701Z,1.70
2018-08-09T14:12:51.613Z,2.02
2018-08-09T14:15:19.223Z,2.00
2018-08-09T14:17:46.852Z,2.10
2018-08-09T14:20:15.937Z,1.95
2018-08-09T14:22:43.568Z,2.02
2018-08-09T14:25:11.619Z,2.27
2018-08-09T14:27:39.536Z,1.82
2018-08-09T14:30:10.557Z,3.40
2018-08-09T14:32:38.206Z,2.08
2018-08-09T14:35:08.734Z,2.45
2018-08-09T14:37:36.418Z,2.35
2018-08-09T14:40:05.597Z,3.25
2018-08-09T14:42:33.384Z,2.55
2018-08-09T14:45:01.022Z,2.30
2018-08-09T14:47:28.634Z,2.37
2018-08-09T14:49:56.347Z,1.95
2018-08-09T14:52:23.971Z,2.08
2018-08-09T14:54:51.663Z,2.20
2018-08-09T14:57:19.299Z,1.92
2018-08-09T14:59:46.997Z,2.10
2018-08-09T15:02:14.585Z,1.70
2018-08-09T15:04:42.215Z,1.80
2018-08-09T15:07:09.930Z,2.55
2018-08-09T15:09:37.567Z,2.30
2018-08-09T15:12:05.185Z,1.98
2018-08-09T15:14:32.888Z,1.82
2018-08-09T15:17:00.551Z,1.60
2018-08-09T15:19:28.222Z,1.95
2018-08-09T15:21:55.866Z,2.12
2018-08-09T15:24:23.506Z,2.67
2018-08-09T15:26:51.262Z,3.92
2018-08-09T15:29:19.159Z,3.05
2018-08-09T15:31:46.752Z,2.37
2018-08-09T15:34:14.508Z,3.00
2018-08-09T15:36:42.181Z,3.47
2018-08-09T15:39:11.971Z,2.67
2018-08-09T15:41:40.545Z,2.92
2018-08-09T15:44:08.735Z,3.08
2018-08-09T15:46:36.355Z,3.92
2018-08-09T15:49:04.181Z,3.08
2018-08-09T15:51:31.851Z,2.50
2018-08-09T15:53:59.905Z,2.60
2018-08-09T15:56:27.803Z,2.52
2018-08-09T15:58:56.351Z,2.35
2018-08-09T16:01:24.156Z,4.15
2018-08-09T16:03:51.925Z,3.20
2018-08-09T16:06:19.539Z,2.45
2018-08-09T16:08:47.230Z,2.72
2018-08-09T16:11:14.944Z,3.62
2018-08-09T16:13:42.717Z,3.60
2018-08-09T16:16:10.576Z,2.52
2018-08-09T16:18:38.361Z,2.55
2018-08-09T16:21:06.372Z,2.60
2018-08-09T16:23:34.151Z,2.60
2018-08-09T16:26:01.928Z,4.47
2018-08-09T16:28:29.566Z,2.60
2018-08-09T16:30:57.211Z,2.90
2018-08-09T16:33:24.892Z,2.70
2018-08-09T16:35:52.906Z,2.45
2018-08-09T16:38:20.602Z,2.40
2018-08-09T16:40:48.237Z,3.47
2018-08-09T16:43:15.840Z,4.15
2018-08-09T16:45:43.459Z,3.50
2018-08-09T16:48:11.086Z,3.00
2018-08-09T16:50:38.737Z,3.47
2018-08-09T16:53:06.352Z,3.35
2018-08-09T16:55:33.950Z,3.45
2018-08-09T16:58:01.565Z,2.92
2018-08-09T17:00:29.193Z,3.95
2018-08-09T17:02:56.869Z,4.67
2018-08-09T17:05:26.635Z,2.85
2018-08-09T17:07:54.321Z,2.85
2018-08-09T17:10:23.830Z,3.67
2018-08-09T17:12:51.678Z,3.45
2018-08-09T17:15:23.448Z,3.80
2018-08-09T17:17:51.825Z,3.80
2018-08-09T17:20:22.278Z,2.80
2018-08-09T17:22:49.886Z,2.98
2018-08-09T17:25:17.762Z,2.33
2018-08-09T17:27:46.363Z,2.67
2018-08-09T17:30:16.159Z,2.27
2018-08-09T17:32:43.825Z,2.02
2018-08-09T17:35:13.269Z,3.17
2018-08-09T17:37:40.903Z,2.30
2018-08-09T17:40:27.221Z,2.47
2018-08-09T17:42:55.848Z,1.72
2018-08-09T17:45:27.438Z,2.20
2018-08-09T17:47:55.142Z,2.35
2018-08-09T17:50:22.758Z,1.98
2018-08-09T17:52:50.453Z,2.20
2018-08-09T17:55:18.057Z,1.80
2018-08-09T17:57:46.312Z,3.25
2018-08-09T18:00:24.700Z,3.15
2018-08-09T18:02:52.739Z,2.80
2018-08-09T18:05:20.404Z,3.22
2018-08-09T18:07:48.109Z,2.20
2018-08-09T18:10:19.155Z,2.15
2018-08-09T18:12:47.362Z,1.50
2018-08-09T18:15:15.278Z,1.42
2018-08-09T18:17:42.914Z,1.40
2018-08-09T18:20:13.278Z,7.30
2018-08-09T18:22:41.326Z,1.67
2018-08-09T18:25:10.284Z,2.98
2018-08-09T18:27:37.967Z,1.62
2018-08-09T18:30:09.906Z,1.00
2018-08-09T18:32:38.014Z,1.45
2018-08-09T18:35:06.594Z,1.00
2018-08-09T18:37:34.245Z,0.70
2018-08-09T18:40:02.034Z,0.85
2018-08-09T18:42:29.677Z,2.02
2018-08-09T18:44:57.334Z,0.80
2018-08-09T18:47:24.986Z,1.40
2018-08-09T18:49:52.598Z,0.60
2018-08-09T18:52:20.299Z,0.60
2018-08-09T18:54:47.914Z,0.70
2018-08-09T18:57:15.506Z,0.78
2018-08-09T18:59:43.118Z,1.07
2018-08-09T19:02:10.725Z,1.00
2018-08-09T19:04:38.353Z,1.27
2018-08-09T19:07:06.342Z,0.75
2018-08-09T19:09:33.980Z,1.00
2018-08-09T19:12:01.598Z,0.72
2018-08-09T19:14:30.835Z,1.30
2018-08-09T19:16:58.426Z,1.05
2018-08-09T19:19:26.040Z,0.75
2018-08-09T19:21:53.657Z,0.78
2018-08-09T19:24:21.453Z,1.15
2018-08-09T19:26:49.108Z,0.70
2018-08-09T19:29:16.714Z,0.60
2018-08-09T19:31:44.367Z,0.93
2018-08-09T19:34:11.965Z,0.70
2018-08-09T19:36:39.593Z,0.62
2018-08-09T19:39:10.956Z,0.57
2018-08-09T19:41:38.810Z,0.72
2018-08-09T19:44:06.512Z,0.50
2018-08-09T19:46:34.368Z,0.45
2018-08-09T19:49:01.956Z,1.85
2018-08-09T19:51:29.574Z,0.75
2018-08-09T19:53:57.236Z,0.50
2018-08-09T19:56:25.237Z,0.57
2018-08-09T19:58:52.886Z,1.25
2018-08-09T20:01:20.726Z,0.60
2018-08-09T20:03:48.337Z,0.80
2018-08-09T20:06:15.938Z,0.98
2018-08-09T20:08:43.554Z,0.53
2018-08-09T20:11:11.269Z,0.60
2018-08-09T20:13:39.093Z,0.72
2018-08-09T20:16:06.719Z,1.15
2018-08-09T20:18:34.479Z,1.62
2018-08-09T20:21:02.142Z,1.00
2018-08-09T20:23:29.814Z,1.47
2018-08-09T20:25:57.438Z,1.00
2018-08-09T20:28:25.138Z,0.70
2018-08-09T20:30:52.767Z,1.30
2018-08-09T20:33:21.350Z,0.98
2018-08-09T20:35:49.089Z,0.62
2018-08-09T20:38:16.721Z,0.72
2018-08-09T20:40:44.366Z,1.10
2018-08-09T20:43:12.150Z,1.47
2018-08-09T20:45:39.746Z,1.40
2018-08-09T20:48:07.399Z,1.72
2018-08-09T20:50:35.073Z,0.70
2018-08-09T20:53:02.965Z,1.40
2018-08-09T20:55:30.691Z,1.00
2018-08-09T20:57:58.345Z,1.45
2018-08-09T21:00:27.495Z,1.72
2018-08-09T21:02:56.464Z,1.07
2018-08-09T21:05:25.822Z,1.30
2018-08-09T21:07:54.330Z,1.00
2018-08-09T21:10:22.299Z,0.82
2018-08-09T21:12:49.931Z,2.12
2018-08-09T21:15:18.525Z,1.70
2018-08-09T21:17:46.215Z,1.37
2018-08-09T21:20:14.327Z,1.02
2018-08-09T21:22:42.567Z,0.85
2018-08-09T21:25:10.838Z,1.02
2018-08-09T21:27:38.430Z,2.05
2018-08-09T21:30:09.097Z,1.72
2018-08-09T21:32:36.874Z,1.50
2018-08-09T21:35:05.116Z,1.35
2018-08-09T21:37:32.824Z,1.20
2018-08-09T21:40:00.445Z,1.20
2018-08-09T21:42:28.093Z,1.02
2018-08-09T21:44:55.860Z,0.88
2018-08-09T21:47:23.522Z,1.15
2018-08-09T21:49:51.147Z,1.37
2018-08-09T21:52:18.761Z,0.90
2018-08-09T21:54:46.444Z,1.05
2018-08-09T21:57:14.435Z,1.65
2018-08-09T21:59:42.409Z,0.90
2018-08-09T22:02:10.001Z,1.65
2018-08-09T22:04:43.377Z,0.68
2018-08-09T22:07:16.694Z,0.70
2018-08-09T22:09:50.050Z,0.80
2018-08-09T22:12:23.478Z,0.88
2018-08-09T22:14:57.499Z,0.70
2018-08-09T22:17:32.113Z,1.00
2018-08-09T22:20:05.455Z,1.02
2018-08-09T22:22:35.702Z,0.50
2018-08-09T22:25:05.130Z,0.60
2018-08-09T22:27:32.861Z,0.55
2018-08-09T22:30:00.584Z,0.50
2018-08-09T22:32:28.257Z,0.70
2018-08-09T22:34:56.064Z,1.27
2018-08-09T22:37:23.709Z,1.12
2018-08-09T22:39:52.173Z,1.10
2018-08-09T22:42:19.794Z,1.25
2018-08-09T22:44:47.453Z,1.98
2018-08-09T22:47:15.182Z,1.40
2018-08-09T22:49:42.785Z,1.40
2018-08-09T22:52:10.438Z,1.00
2018-08-09T22:54:38.074Z,1.80
2018-08-09T22:57:05.774Z,0.55
2018-08-09T22:59:33.404Z,0.55
2018-08-09T23:02:01.164Z,0.80
2018-08-09T23:04:28.896Z,1.65
2018-08-09T23:06:56.636Z,1.17
2018-08-09T23:09:24.625Z,0.75
2018-08-09T23:11:53.235Z,1.17
2018-08-09T23:14:20.973Z,0.57
2018-08-09T23:16:48.661Z,1.30
2018-08-09T23:19:16.347Z,1.12
2018-08-09T23:21:45.015Z,1.12
2018-08-09T23:24:12.630Z,0.82
2018-08-09T23:26:40.934Z,0.72
2018-08-09T23:29:08.575Z,1.10
2018-08-09T23:31:36.177Z,0.80
2018-08-09T23:34:03.815Z,1.00
2018-08-09T23:36:31.429Z,0.72
2018-08-09T23:38:59.058Z,0.62
2018-08-09T23:41:26.654Z,0.85
2018-08-09T23:43:54.756Z,2.17
2018-08-09T23:46:22.375Z,0.70
2018-08-09T23:48:50.010Z,2.12
2018-08-09T23:51:17.655Z,0.60
2018-08-09T23:53:45.346Z,2.45
2018-08-09T23:56:12.999Z,1.32
2018-08-09T23:58:40.626Z,1.40
